Airfield :
LOGIN :

Register | Disclaimer

   EN    FR    IT 

 










Legend :    VFR   Marginal VFR   IFR   Intensive IFR   Very Intensive IFR
Visi :
Ceiling :
>= 8 km
>= 3000ft
5 to 8 km
1000 to 3000 ft
1500m to 5 km
500 to 1000 ft
800 to 1500m
200 to 500 ft
< 800m
< 200 ft
Symbols :   Thunderstorms  Fog  Heavy snow  Heavy precipitations  Wind > 20 kt
SIGMETs :     Misc.  Thunderstorms  Icing  Turbulence  Mountain Waves  Volcanic Ashes






- Airport Elevation : 1187 ft


LIBV - Gioia del Colle Bari

CURRENT METAR :
  • 251855Z 15012KT 6000 BKN008 21/21 Q1013 RMK BKN BKN120 VIS MIN 6000 WIND THR32 16010KT WIND THR14 16010KT GRN

EXPIRED METARs :
  • 251755Z 15010KT 7000 BKN011 20/20 Q1014 RMK BKN BKN240 VIS MIN 7000 WIND THR32 16009KT WIND THR14 16010KT GRN
  • 251655Z 16014KT 7000 SCT015 21/19 Q1014 RMK BKN BKN150 VIS MIN 7000 WIND THR32 16014KT WIND THR14 17014KT WHT

TAF TAF LIBV
Valid from the 25 at 18:00 until the 26 at 03:00 UTC


251700Z 2518/2603 16014KT 4000 BR BKN007
TEMPO 2519/2522 2000 BR FEW003 BKN005
BECMG 2521/2523 16008KT



MET'MAP, your aeronautical weather chart ! - Copyright ORBIFLY December 2007 - Disclaimer

ORBIFLY MET'MAP TEAM :

Programming & Development : Alexandra Zaïnal
Original concept : Baudouin d'Aumeries
Technical & hardware support : Manuel Goepfert
Assistance : Marc-Olivier Méhu




SOURCES & CREDITS :

   NOAA